Time;durP1;ratioP1;P1;durP2;ratioP2;P2;SDS_P1;SDS_P2;PMS_P1;PMS_P2;Temp;Humidity;BMP_temperature;BMP_pressure;BME280_temperature;BME280_humidity;BME280_pressure;Samples;Min_cycle;Max_cycle;Signal;HPM_P1;HPM_P2
2023/04/11 00:01:21;;;;;;;0.30;0.30;;;;;;;18.84;44.59;100588.38;5115278;28;20370;-48
2023/04/11 00:03:47;;;;;;;0.20;0.20;;;;;;;18.85;44.25;100598.28;5104917;28;20073;-48
2023/04/11 00:06:13;;;;;;;0.20;0.20;;;;;;;18.84;44.50;100599.41;5132693;27;20103;-46
2023/04/11 00:08:39;;;;;;;0.20;0.20;;;;;;;18.85;44.33;100598.28;5116853;27;20387;-46
2023/04/11 00:11:05;;;;;;;0.30;0.30;;;;;;;18.84;44.44;100591.94;5133325;27;20043;-46
2023/04/11 00:13:31;;;;;;;0.20;0.20;;;;;;;18.85;44.59;100590.00;5129279;27;20073;-47
2023/04/11 00:15:58;;;;;;;0.20;0.20;;;;;;;18.84;44.60;100586.44;5135532;27;20105;-49
2023/04/11 00:18:24;;;;;;;0.30;0.30;;;;;;;18.83;44.56;100604.09;5135076;27;20432;-49
2023/04/11 00:20:50;;;;;;;0.20;0.20;;;;;;;18.83;44.48;100587.53;5135209;27;20111;-46
2023/04/11 00:23:15;;;;;;;0.30;0.30;;;;;;;18.84;44.40;100589.19;5134196;27;20042;-46
2023/04/11 00:25:41;;;;;;;0.30;0.30;;;;;;;18.83;44.63;100592.25;5123988;27;20047;-48
2023/04/11 00:28:08;;;;;;;0.20;0.20;;;;;;;18.85;44.32;100584.50;5138686;27;20057;-46
2023/04/11 00:30:34;;;;;;;0.20;0.20;;;;;;;18.85;44.63;100590.00;5138705;27;20204;-47
2023/04/11 00:32:59;;;;;;;0.20;0.20;;;;;;;18.84;44.33;100594.69;5138786;27;20470;-49
2023/04/11 00:35:25;;;;;;;0.20;0.20;;;;;;;18.83;44.51;100590.31;5139211;27;20057;-48
2023/04/11 00:37:54;;;;;;;0.30;0.30;;;;;;;18.85;44.32;100590.00;5119923;27;20052;-48
2023/04/11 00:40:21;;;;;;;0.30;0.30;;;;;;;18.84;44.28;100580.91;5120613;27;20070;-46
2023/04/11 00:42:47;;;;;;;0.20;0.20;;;;;;;18.84;44.66;100583.66;5134581;27;20112;-49
2023/04/11 00:45:13;;;;;;;0.30;0.30;;;;;;;18.84;44.50;100594.69;5118261;27;20163;-49
2023/04/11 00:47:40;;;;;;;0.30;0.30;;;;;;;18.84;44.52;100588.38;5117628;28;20455;-48
2023/04/11 00:50:06;;;;;;;0.30;0.30;;;;;;;18.84;44.39;100594.69;5117680;28;20043;-46
2023/04/11 00:52:33;;;;;;;0.30;0.30;;;;;;;18.84;44.51;100589.19;5117679;27;20135;-46
2023/04/11 00:55:01;;;;;;;0.20;0.20;;;;;;;18.84;44.31;100600.22;5102756;28;20835;-48
2023/04/11 00:57:26;;;;;;;0.20;0.20;;;;;;;18.84;44.60;100596.66;5118102;27;20248;-48
2023/04/11 00:59:52;;;;;;;0.20;0.20;;;;;;;18.84;44.47;100602.16;5117762;27;20047;-45
2023/04/11 01:02:18;;;;;;;0.30;0.30;;;;;;;18.84;44.56;100594.69;5117632;28;20053;-48
2023/04/11 01:04:44;;;;;;;0.20;0.20;;;;;;;18.84;44.58;100596.66;5137492;27;20517;-46
2023/04/11 01:07:10;;;;;;;0.20;0.20;;;;;;;18.84;44.47;100591.94;5138083;27;20673;-45
2023/04/11 01:09:37;;;;;;;0.30;0.30;;;;;;;18.84;44.42;100585.59;5138171;27;20372;-46
2023/04/11 01:12:03;;;;;;;0.20;0.20;;;;;;;18.84;44.54;100591.94;5119293;27;20927;-49
2023/04/11 01:14:29;;;;;;;0.30;0.30;;;;;;;18.84;44.58;100580.91;5138275;27;20277;-48
2023/04/11 01:16:55;;;;;;;0.30;0.30;;;;;;;18.84;44.64;100580.09;5138726;27;20112;-47
2023/04/11 01:19:22;;;;;;;0.30;0.30;;;;;;;18.84;44.40;100577.34;5119196;27;20343;-48
2023/04/11 01:21:49;;;;;;;0.20;0.20;;;;;;;18.84;44.52;100582.84;5119490;27;20089;-46
2023/04/11 01:24:15;;;;;;;0.20;0.20;;;;;;;18.83;44.52;100579.28;5119055;27;20042;-47
2023/04/11 01:26:41;;;;;;;0.20;0.20;;;;;;;18.85;44.59;100581.72;5137598;27;20054;-46
2023/04/11 01:29:07;;;;;;;0.30;0.30;;;;;;;18.84;44.36;100580.09;5137313;27;20058;-47
2023/04/11 01:31:32;;;;;;;0.20;0.20;;;;;;;18.84;44.60;100585.59;5137641;27;20039;-45
2023/04/11 01:34:00;;;;;;;0.20;0.20;;;;;;;18.84;44.31;100585.59;5137525;27;20512;-46
2023/04/11 01:36:27;;;;;;;0.20;0.20;;;;;;;18.83;44.44;100576.50;5119346;27;20043;-47
2023/04/11 01:38:52;;;;;;;0.20;0.20;;;;;;;18.83;44.23;100573.75;5137679;27;20054;-48
2023/04/11 01:41:19;;;;;;;0.30;0.30;;;;;;;18.83;44.65;100575.69;5137265;27;20047;-47
2023/04/11 01:43:45;;;;;;;0.30;0.30;;;;;;;18.84;44.68;100572.63;5136872;27;20157;-47
2023/04/11 01:46:12;;;;;;;0.22;0.22;;;;;;;18.83;44.56;100579.28;5105303;27;20388;-47
2023/04/11 01:48:37;;;;;;;0.30;0.30;;;;;;;18.84;44.40;100580.09;5116847;28;20054;-46
2023/04/11 01:51:04;;;;;;;0.20;0.20;;;;;;;18.83;44.39;100586.72;5098159;28;20043;-48
2023/04/11 01:53:29;;;;;;;0.20;0.20;;;;;;;18.83;44.49;100600.53;5116161;27;20411;-48
2023/04/11 01:55:55;;;;;;;0.30;0.30;;;;;;;18.84;44.36;100604.91;5116570;27;20717;-45
2023/04/11 01:58:21;;;;;;;0.20;0.20;;;;;;;18.84;44.67;100605.75;5116786;28;20074;-46
2023/04/11 02:00:46;;;;;;;0.20;0.20;;;;;;;18.84;44.63;100593.88;5116377;28;20047;-46
2023/04/11 02:03:12;;;;;;;0.20;0.20;;;;;;;18.85;44.67;100606.56;5116148;27;20050;-47
2023/04/11 02:05:38;;;;;;;0.20;0.20;;;;;;;18.83;44.58;100604.09;5116022;27;20035;-48
2023/04/11 02:08:04;;;;;;;0.20;0.20;;;;;;;18.84;44.54;100596.66;5116691;28;20082;-45
2023/04/11 02:10:30;;;;;;;0.30;0.30;;;;;;;18.84;44.50;100602.16;5097707;28;20047;-47
2023/04/11 02:12:56;;;;;;;0.20;0.20;;;;;;;18.84;44.40;100605.75;5133425;27;20568;-47
2023/04/11 02:15:21;;;;;;;0.20;0.20;;;;;;;18.83;44.43;100598.59;5136696;27;20046;-49
2023/04/11 02:17:48;;;;;;;0.20;0.20;;;;;;;18.83;44.31;100601.34;5136595;27;20360;-45
2023/04/11 02:20:14;;;;;;;0.20;0.20;;;;;;;18.84;44.64;100605.75;5136943;27;20043;-46
2023/04/11 02:22:40;;;;;;;0.20;0.20;;;;;;;18.84;44.65;100607.69;5136609;27;20046;-47
2023/04/11 02:25:06;;;;;;;0.20;0.20;;;;;;;18.85;44.32;100609.31;5136376;27;20042;-45
2023/04/11 02:27:32;;;;;;;0.20;0.20;;;;;;;18.84;44.40;100608.50;5136237;27;20043;-47
2023/04/11 02:29:59;;;;;;;0.20;0.20;;;;;;;18.83;44.59;100615.13;5136342;27;20510;-47
2023/04/11 02:32:26;;;;;;;0.30;0.30;;;;;;;18.84;44.52;100607.69;5136290;27;20504;-48
2023/04/11 02:34:52;;;;;;;0.20;0.20;;;;;;;18.84;44.33;100607.69;5136465;27;20297;-46
2023/04/11 02:37:18;;;;;;;0.25;0.25;;;;;;;18.83;44.38;100604.09;5136483;27;20039;-47
2023/04/11 02:39:44;;;;;;;0.30;0.30;;;;;;;18.84;44.51;100624.22;5117944;27;20124;-47
2023/04/11 02:42:12;;;;;;;0.40;0.40;;;;;;;18.84;44.48;100618.72;5135853;27;20046;-45
2023/04/11 02:44:37;;;;;;;0.20;0.20;;;;;;;18.84;44.68;100615.97;5117262;27;20047;-46
2023/04/11 02:47:03;;;;;;;0.20;0.20;;;;;;;18.84;44.48;100619.53;5134069;27;20095;-46
2023/04/11 02:49:29;;;;;;;0.20;0.20;;;;;;;18.84;44.57;100627.00;5135595;27;20039;-46
2023/04/11 02:51:54;;;;;;;0.30;0.30;;;;;;;18.83;44.64;100628.09;5136080;27;20111;-46
2023/04/11 02:54:20;;;;;;;0.30;0.30;;;;;;;18.83;44.78;100628.94;5135504;27;20542;-47
2023/04/11 02:56:46;;;;;;;0.28;0.28;;;;;;;18.84;44.74;100624.22;5135859;27;20078;-46
2023/04/11 02:59:11;;;;;;;0.30;0.30;;;;;;;18.84;44.36;100627.00;5136233;27;20059;-48
2023/04/11 03:01:37;;;;;;;0.20;0.20;;;;;;;18.83;44.72;100623.41;5136437;27;20139;-47
2023/04/11 03:04:03;;;;;;;0.30;0.30;;;;;;;18.84;44.41;100635.28;5135737;27;20532;-46
2023/04/11 03:06:29;;;;;;;0.50;0.50;;;;;;;18.84;44.42;100627.00;5136091;27;20074;-45
2023/04/11 03:08:55;;;;;;;0.30;0.30;;;;;;;18.83;44.77;100634.44;5116914;27;20414;-46
2023/04/11 03:11:21;;;;;;;0.30;0.30;;;;;;;18.84;44.41;100635.28;5122888;27;20116;-47
2023/04/11 03:13:47;;;;;;;0.30;0.30;;;;;;;18.82;44.57;100627.25;5127025;27;20439;-49
2023/04/11 03:16:13;;;;;;;0.30;0.30;;;;;;;18.84;44.49;100632.50;5135288;27;20046;-46
2023/04/11 03:18:39;;;;;;;0.30;0.30;;;;;;;18.84;44.60;100638.03;5117102;27;20047;-47
2023/04/11 03:21:06;;;;;;;0.20;0.20;;;;;;;18.83;44.74;100626.19;5135753;27;20058;-47
2023/04/11 03:23:32;;;;;;;0.20;0.20;;;;;;;18.83;44.72;100637.22;5135414;27;20479;-45
2023/04/11 03:25:59;;;;;;;0.20;0.20;;;;;;;18.83;44.64;100628.94;5135385;27;20822;-48
2023/04/11 03:28:24;;;;;;;0.30;0.30;;;;;;;18.84;44.68;100629.75;5135023;27;20074;-46
2023/04/11 03:30:50;;;;;;;0.20;0.20;;;;;;;18.82;44.32;100630.00;5135528;27;20680;-45
2023/04/11 03:33:16;;;;;;;0.30;0.30;;;;;;;18.83;44.76;100630.88;5128531;27;20047;-45
2023/04/11 03:35:41;;;;;;;0.30;0.30;;;;;;;18.84;44.37;100640.78;5115199;27;20057;-46
2023/04/11 03:38:07;;;;;;;0.30;0.30;;;;;;;18.83;44.66;100645.47;5115347;28;20051;-47
2023/04/11 03:40:33;;;;;;;0.22;0.22;;;;;;;18.84;44.74;100638.03;5115138;28;20104;-45
2023/04/11 03:43:00;;;;;;;0.30;0.30;;;;;;;18.82;44.49;100646.56;5115602;27;20047;-49
2023/04/11 03:45:30;;;;;;;0.30;0.30;;;;;;;18.83;44.57;100648.25;5115298;27;20471;-47
2023/04/11 03:47:55;;;;;;;0.30;0.30;;;;;;;18.84;44.45;100646.31;5118703;27;20335;-46
2023/04/11 03:50:21;;;;;;;0.30;0.30;;;;;;;18.83;44.61;100648.25;5134898;27;20110;-45
2023/04/11 03:52:47;;;;;;;0.30;0.30;;;;;;;18.83;44.44;100658.47;5135421;27;20100;-45
2023/04/11 03:55:12;;;;;;;0.30;0.30;;;;;;;18.83;44.71;100662.03;5135426;27;20050;-46
2023/04/11 03:57:38;;;;;;;0.20;0.20;;;;;;;18.83;44.66;100666.72;5135132;27;20479;-48
2023/04/11 04:00:05;;;;;;;0.30;0.30;;;;;;;18.84;44.47;100674.72;5135606;27;20373;-45
2023/04/11 04:02:30;;;;;;;0.20;0.20;;;;;;;18.83;44.49;100675.00;5139493;27;20306;-46
2023/04/11 04:04:57;;;;;;;0.20;0.20;;;;;;;18.84;44.71;100679.41;5139232;27;20112;-48
2023/04/11 04:07:24;;;;;;;0.20;0.20;;;;;;;18.83;44.44;100684.13;5139009;27;20093;-48
2023/04/11 04:09:50;;;;;;;0.30;0.30;;;;;;;18.84;44.47;100684.94;5119526;27;20520;-46
2023/04/11 04:12:17;;;;;;;0.30;0.30;;;;;;;18.82;44.88;100679.69;5120531;27;20054;-46
2023/04/11 04:14:44;;;;;;;0.30;0.30;;;;;;;18.84;44.66;100674.72;5139184;27;20047;-45
2023/04/11 04:17:10;;;;;;;0.30;0.30;;;;;;;18.83;44.69;100678.59;5138691;27;20046;-47
2023/04/11 04:19:36;;;;;;;0.20;0.20;;;;;;;18.83;44.48;100675.84;5103204;27;20043;-46
2023/04/11 04:22:02;;;;;;;0.30;0.30;;;;;;;18.83;44.76;100680.53;5139048;27;20046;-47
2023/04/11 04:24:30;;;;;;;0.30;0.30;;;;;;;18.84;44.51;100685.75;5139379;27;20065;-49
2023/04/11 04:26:59;;;;;;;0.20;0.20;;;;;;;18.84;44.49;100684.94;5139271;27;20121;-48
2023/04/11 04:29:32;;;;;;;0.20;0.20;;;;;;;18.83;44.60;100681.34;5138556;27;20633;-46
2023/04/11 04:32:00;;;;;;;0.30;0.30;;;;;;;18.84;44.76;100687.69;5138524;27;20303;-48
2023/04/11 04:34:27;;;;;;;0.30;0.30;;;;;;;18.84;44.56;100693.22;5138959;27;20550;-48
2023/04/11 04:36:58;;;;;;;0.20;0.20;;;;;;;18.83;44.69;100691.56;5139079;27;20081;-45
2023/04/11 04:39:24;;;;;;;0.20;0.20;;;;;;;18.84;44.49;100695.97;5120436;27;20045;-49
2023/04/11 04:41:57;;;;;;;0.25;0.25;;;;;;;18.82;44.59;100704.50;5138385;27;20070;-45
2023/04/11 04:44:23;;;;;;;0.30;0.30;;;;;;;18.83;44.67;100702.59;5121201;27;20107;-46
2023/04/11 04:46:53;;;;;;;0.20;0.20;;;;;;;18.84;44.36;100698.72;5120412;27;20084;-45
2023/04/11 04:49:19;;;;;;;0.20;0.20;;;;;;;18.84;44.51;100699.53;5119736;27;20108;-46
2023/04/11 04:51:44;;;;;;;0.30;0.30;;;;;;;18.83;44.34;100703.44;5138096;27;20451;-49
2023/04/11 04:54:10;;;;;;;0.30;0.30;;;;;;;18.84;44.64;100715.28;5137967;27;20541;-46
2023/04/11 04:56:36;;;;;;;0.20;0.20;;;;;;;18.84;44.47;100713.34;5138177;27;20058;-47
2023/04/11 04:59:02;;;;;;;0.30;0.30;;;;;;;18.84;44.54;100709.75;5137807;27;20047;-49
2023/04/11 05:01:27;;;;;;;0.30;0.30;;;;;;;18.83;44.65;100710.88;5119231;27;20450;-46
2023/04/11 05:04:01;;;;;;;0.30;0.30;;;;;;;18.84;44.79;100715.28;5137705;27;20058;-48
2023/04/11 05:06:28;;;;;;;0.20;0.20;;;;;;;18.84;44.73;100729.91;5120731;27;20077;-47
2023/04/11 05:08:57;;;;;;;0.30;0.30;;;;;;;18.84;44.82;100731.84;5117894;27;20046;-46
2023/04/11 05:11:23;;;;;;;;;;;;;;;18.84;44.67;100729.91;5117020;27;20051;-46
2023/04/11 05:13:48;;;;;;;0.20;0.20;;;;;;;18.83;44.78;100735.72;5128792;27;20010;-46
2023/04/11 05:16:16;;;;;;;0.20;0.20;;;;;;;18.85;44.51;100739.00;5137711;27;20049;-45
2023/04/11 05:18:41;;;;;;;0.30;0.30;;;;;;;18.84;44.50;100740.13;5102051;27;20038;-47
2023/04/11 05:21:07;;;;;;;0.20;0.20;;;;;;;18.83;44.52;100742.06;5119048;27;20085;-45
2023/04/11 05:23:33;;;;;;;0.20;0.20;;;;;;;18.83;44.77;100747.56;5137517;27;20046;-47
2023/04/11 05:26:00;;;;;;;0.20;0.20;;;;;;;18.84;44.51;100751.16;5137633;27;20043;-49
2023/04/11 05:28:25;;;;;;;0.20;0.20;;;;;;;18.83;44.60;100747.56;5119057;27;20065;-47
2023/04/11 05:30:51;;;;;;;0.28;0.28;;;;;;;18.83;44.50;100747.56;5137066;27;20038;-46
2023/04/11 05:33:17;;;;;;;0.30;0.30;;;;;;;18.84;44.67;100754.72;5129639;27;20051;-47
2023/04/11 05:35:42;;;;;;;0.30;0.30;;;;;;;18.85;44.67;100763.84;5136684;27;20099;-46
2023/04/11 05:38:08;;;;;;;0.20;0.20;;;;;;;18.83;44.51;100755.84;5137618;27;20050;-46
2023/04/11 05:40:35;;;;;;;0.22;0.22;;;;;;;18.84;44.76;100767.72;5137110;27;20095;-47
2023/04/11 05:43:01;;;;;;;0.30;0.30;;;;;;;18.84;44.73;100767.72;5137292;27;20087;-46
2023/04/11 05:45:27;;;;;;;0.30;0.30;;;;;;;18.84;44.49;100776.81;5137398;27;20078;-46
2023/04/11 05:47:53;;;;;;;0.25;0.25;;;;;;;18.84;44.45;100785.09;5137909;27;20047;-50
2023/04/11 05:50:19;;;;;;;0.30;0.30;;;;;;;18.84;44.49;100781.50;5137137;27;20055;-47
2023/04/11 05:52:44;;;;;;;0.30;0.30;;;;;;;18.84;44.68;100778.75;5134389;27;20095;-48
2023/04/11 05:55:10;;;;;;;0.30;0.30;;;;;;;18.84;44.60;100793.34;5116739;27;20043;-46
2023/04/11 05:57:36;;;;;;;0.20;0.20;;;;;;;18.84;44.51;100798.06;5116724;28;20078;-50
2023/04/11 06:00:11;;;;;;;0.20;0.20;;;;;;;18.83;44.68;100797.22;5116590;28;20533;-45
2023/04/11 06:02:37;;;;;;;0.20;0.20;;;;;;;18.84;44.48;100811.84;5099185;27;20503;-49
2023/04/11 06:05:04;;;;;;;0.30;0.30;;;;;;;18.84;44.70;100812.66;5116436;27;20316;-47
2023/04/11 06:07:31;;;;;;;0.20;0.20;;;;;;;18.84;44.82;100812.66;5098040;28;20469;-46
2023/04/11 06:09:57;;;;;;;0.30;0.30;;;;;;;18.84;44.81;100818.19;5116436;27;20043;-46
2023/04/11 06:12:22;;;;;;;0.30;0.30;;;;;;;18.84;44.79;100820.13;5116364;28;20049;-45
2023/04/11 06:14:48;;;;;;;0.30;0.30;;;;;;;18.85;44.62;100816.25;5136295;27;20042;-46
2023/04/11 06:17:14;;;;;;;0.30;0.30;;;;;;;18.85;44.48;100819.00;5136379;27;20047;-48
2023/04/11 06:19:40;;;;;;;0.20;0.20;;;;;;;18.84;44.58;100828.41;5136968;27;20138;-49
2023/04/11 06:22:06;;;;;;;0.30;0.30;;;;;;;18.84;44.80;100822.88;5118261;27;20377;-45
2023/04/11 06:24:36;;;;;;;0.30;0.30;;;;;;;18.85;44.68;100830.88;5135900;27;20039;-48
2023/04/11 06:27:02;;;;;;;0.20;0.20;;;;;;;18.84;44.82;100840.25;5117895;27;20540;-45
2023/04/11 06:29:28;;;;;;;0.30;0.30;;;;;;;18.85;44.60;100833.63;5118092;27;20050;-46
2023/04/11 06:31:53;;;;;;;0.30;0.30;;;;;;;18.84;44.80;100839.44;5136241;27;20042;-45
2023/04/11 06:34:19;;;;;;;0.30;0.30;;;;;;;18.84;44.79;100843.03;5135553;27;20069;-46
2023/04/11 06:36:47;;;;;;;0.25;0.25;;;;;;;18.84;44.80;100842.19;5135766;27;20058;-47
2023/04/11 06:39:12;;;;;;;0.30;0.30;;;;;;;18.84;44.80;100848.53;5136334;27;20058;-48
2023/04/11 06:41:38;;;;;;;0.20;0.20;;;;;;;18.84;44.66;100854.06;5136577;27;20413;-46
2023/04/11 06:44:03;;;;;;;0.30;0.30;;;;;;;18.84;44.67;100859.59;5136397;27;20042;-48
2023/04/11 06:46:29;;;;;;;0.20;0.20;;;;;;;18.84;44.76;100856.81;5136202;27;20043;-47
2023/04/11 06:48:55;;;;;;;0.20;0.20;;;;;;;18.84;44.73;100856.00;5136193;27;20047;-48
2023/04/11 06:51:21;;;;;;;0.20;0.20;;;;;;;18.84;44.65;100856.00;5136683;27;20204;-46
2023/04/11 06:53:46;;;;;;;0.20;0.20;;;;;;;18.84;44.48;100853.25;5124221;27;20047;-49
2023/04/11 06:56:12;;;;;;;0.30;0.30;;;;;;;18.85;44.57;100857.66;5116041;27;20055;-47
2023/04/11 06:58:37;;;;;;;0.38;0.38;;;;;;;18.85;44.50;100861.22;5115891;28;20039;-46
2023/04/11 07:01:03;;;;;;;0.30;0.30;;;;;;;18.85;44.71;100860.41;5116175;28;20047;-46
2023/04/11 07:03:29;;;;;;;0.20;0.20;;;;;;;18.84;44.57;100867.84;5116051;27;20191;-46
2023/04/11 07:05:55;;;;;;;0.20;0.20;;;;;;;18.84;44.58;100870.63;5115424;27;20051;-46
2023/04/11 07:08:21;;;;;;;0.30;0.30;;;;;;;18.85;44.41;100868.69;5119860;27;20054;-45
2023/04/11 07:10:46;;;;;;;0.30;0.30;;;;;;;18.85;44.77;100871.44;5136174;27;20046;-46
2023/04/11 07:13:12;;;;;;;0.20;0.20;;;;;;;18.85;44.57;100880.53;5136364;27;20301;-45
2023/04/11 07:15:38;;;;;;;0.20;0.20;;;;;;;18.84;44.72;100886.34;5136093;27;20039;-47
2023/04/11 07:18:03;;;;;;;0.20;0.20;;;;;;;18.84;44.77;100880.84;5135984;27;20410;-45
2023/04/11 07:20:31;;;;;;;0.30;0.30;;;;;;;18.85;44.81;100885.25;5135820;27;20074;-47
2023/04/11 07:22:57;;;;;;;0.20;0.20;;;;;;;18.85;44.71;100890.75;5136077;27;20190;-48
2023/04/11 07:25:26;;;;;;;0.20;0.20;;;;;;;18.84;44.80;100884.41;5117397;27;20066;-46
2023/04/11 07:27:52;;;;;;;0.20;0.20;;;;;;;18.84;44.46;100892.69;5135975;27;20053;-47
2023/04/11 07:30:17;;;;;;;0.20;0.20;;;;;;;18.84;44.62;100894.63;5135412;27;20050;-46
2023/04/11 07:32:43;;;;;;;0.20;0.20;;;;;;;18.85;44.53;100888.00;5136060;27;20113;-46
2023/04/11 07:35:09;;;;;;;0.20;0.20;;;;;;;18.84;44.83;100900.97;5137745;27;20042;-46
2023/04/11 07:37:35;;;;;;;0.22;0.22;;;;;;;18.85;44.63;100893.50;5121005;27;20414;-49
2023/04/11 07:40:00;;;;;;;0.20;0.20;;;;;;;18.83;44.65;100888.28;5138971;27;20058;-45
2023/04/11 07:42:26;;;;;;;0.30;0.30;;;;;;;18.84;44.68;100892.69;5139389;27;20078;-46
2023/04/11 07:44:52;;;;;;;0.25;0.25;;;;;;;18.85;44.50;100901.78;5100276;28;20051;-47
2023/04/11 07:47:17;;;;;;;0.20;0.20;;;;;;;18.84;44.83;100891.88;5118586;28;20049;-45
2023/04/11 07:49:43;;;;;;;0.30;0.30;;;;;;;18.84;44.57;100889.94;5118537;28;20554;-45
2023/04/11 07:52:09;;;;;;;0.20;0.20;;;;;;;18.84;44.73;100892.69;5118842;28;20387;-46
2023/04/11 07:54:37;;;;;;;;;;;;;;;18.84;44.80;100900.97;5127772;27;20050;-45
2023/04/11 07:57:03;;;;;;;0.30;0.30;;;;;;;18.85;44.73;100899.03;5118712;28;19924;-46
2023/04/11 07:59:28;;;;;;;0.22;0.22;;;;;;;18.84;44.77;100898.22;5118452;28;20049;-46
2023/04/11 08:01:59;;;;;;;0.30;0.30;;;;;;;18.84;44.70;100898.22;5118563;28;20062;-45
2023/04/11 08:04:29;;;;;;;0.20;0.20;;;;;;;18.84;44.75;100900.97;5115174;27;20577;-45
2023/04/11 08:06:56;;;;;;;0.20;0.20;;;;;;;18.83;44.54;100896.56;5138429;27;20482;-46
2023/04/11 08:09:22;;;;;;;0.20;0.20;;;;;;;18.85;44.70;100899.03;5131686;27;20050;-45
2023/04/11 08:11:47;;;;;;;0.20;0.20;;;;;;;18.85;44.76;100907.31;5139362;27;20300;-45
2023/04/11 08:14:13;;;;;;;0.20;0.20;;;;;;;18.85;44.81;100907.31;5139550;27;20035;-47
2023/04/11 08:16:39;;;;;;;0.20;0.20;;;;;;;18.84;44.75;100912.00;5139254;27;20566;-46
2023/04/11 08:19:05;;;;;;;0.20;0.20;;;;;;;18.84;44.65;100923.03;5138860;27;20050;-46
2023/04/11 08:21:31;;;;;;;0.30;0.30;;;;;;;18.85;44.57;100910.06;5138908;27;20042;-45
2023/04/11 08:23:57;;;;;;;0.20;0.20;;;;;;;18.85;44.55;100915.59;5139259;27;20495;-49
2023/04/11 08:26:23;;;;;;;0.20;0.20;;;;;;;18.84;44.56;100925.81;5138601;27;20103;-48
2023/04/11 08:28:49;;;;;;;0.20;0.20;;;;;;;18.85;44.50;100926.63;5119660;27;20047;-46
2023/04/11 08:31:14;;;;;;;0.30;0.30;;;;;;;18.85;44.66;100929.38;5138058;27;20049;-46
2023/04/11 08:33:40;;;;;;;0.30;0.30;;;;;;;18.84;44.65;100925.81;5119985;27;20111;-45
2023/04/11 08:36:08;;;;;;;0.30;0.30;;;;;;;18.85;44.67;100927.44;5138111;27;20057;-46
2023/04/11 08:38:35;;;;;;;0.30;0.30;;;;;;;18.84;44.62;100914.75;5137601;27;20293;-46
2023/04/11 08:41:00;;;;;;;0.20;0.20;;;;;;;18.85;44.87;100926.63;5124982;27;20399;-45
2023/04/11 08:43:26;;;;;;;0.30;0.30;;;;;;;18.83;44.78;100924.16;5137757;27;20330;-45
2023/04/11 08:45:52;;;;;;;0.20;0.20;;;;;;;18.85;44.48;100926.63;5137669;27;20607;-47
2023/04/11 08:48:23;;;;;;;0.20;0.20;;;;;;;18.84;44.82;100931.31;5138178;27;20046;-45
2023/04/11 08:50:49;;;;;;;0.30;0.30;;;;;;;18.84;44.64;100936.84;5137510;27;20103;-45
2023/04/11 08:53:17;;;;;;;0.20;0.20;;;;;;;18.84;44.64;100942.34;5137960;27;20043;-45
2023/04/11 08:55:47;;;;;;;0.20;0.20;;;;;;;18.85;44.71;100945.94;5138073;27;20400;-45
2023/04/11 08:58:13;;;;;;;0.20;0.20;;;;;;;18.83;44.87;100943.47;5136280;27;20099;-45
2023/04/11 09:00:39;;;;;;;0.30;0.30;;;;;;;18.84;44.62;100945.13;5137889;27;20058;-46
2023/04/11 09:03:06;;;;;;;0.20;0.20;;;;;;;18.84;44.49;100945.13;5132508;27;20074;-46
2023/04/11 09:05:37;;;;;;;0.20;0.20;;;;;;;18.84;44.50;100938.78;5117127;27;20617;-46
2023/04/11 09:08:05;;;;;;;0.30;0.30;;;;;;;18.85;44.48;100938.47;5109111;27;20057;-45
2023/04/11 09:10:31;;;;;;;0.20;0.20;;;;;;;18.84;44.71;100939.59;5119220;27;20089;-46
2023/04/11 09:12:58;;;;;;;0.20;0.20;;;;;;;18.85;44.68;100954.22;5114587;28;20532;-46
2023/04/11 09:15:26;;;;;;;0.20;0.20;;;;;;;18.85;44.50;100945.94;5104757;28;20058;-45
2023/04/11 09:17:52;;;;;;;;;;;;;;;18.86;44.50;100944.81;5118083;27;20079;-46
2023/04/11 09:20:29;;;;;;;0.22;0.22;;;;;;;18.85;44.50;100951.47;5115566;28;19923;-46
2023/04/11 09:22:56;;;;;;;0.25;0.25;;;;;;;18.84;44.71;100934.06;5119695;27;20304;-45
2023/04/11 09:25:22;;;;;;;0.20;0.20;;;;;;;18.85;44.47;100940.41;5137832;27;20055;-48
2023/04/11 09:27:49;;;;;;;0.20;0.20;;;;;;;18.85;44.80;100941.25;5138109;27;20043;-46
2023/04/11 09:30:21;;;;;;;0.20;0.20;;;;;;;18.84;44.75;100934.06;5119020;27;20050;-46
2023/04/11 09:32:47;;;;;;;0.20;0.20;;;;;;;18.85;44.79;100937.66;5119178;27;20035;-45
2023/04/11 09:35:22;;;;;;;0.20;0.20;;;;;;;18.84;44.67;100942.34;5119016;27;20084;-45
2023/04/11 09:37:54;;;;;;;0.20;0.20;;;;;;;18.85;44.70;100937.66;5119342;27;20058;-46
2023/04/11 09:40:24;;;;;;;0.20;0.20;;;;;;;18.85;44.76;100940.41;5132578;27;20398;-46
2023/04/11 09:42:59;;;;;;;0.30;0.30;;;;;;;18.85;44.46;100959.72;5119570;27;20532;-45
2023/04/11 09:45:26;;;;;;;0.20;0.20;;;;;;;18.85;44.70;100956.97;5137217;27;20077;-46
2023/04/11 09:47:53;;;;;;;0.20;0.20;;;;;;;18.85;44.74;100956.97;5119509;27;20077;-46
2023/04/11 09:50:19;;;;;;;0.20;0.20;;;;;;;18.85;44.66;100957.81;5119156;27;20118;-46
2023/04/11 09:52:45;;;;;;;0.20;0.20;;;;;;;18.84;44.37;100947.88;5119111;27;20486;-46
2023/04/11 09:55:14;;;;;;;0.22;0.22;;;;;;;18.85;44.63;100968.84;5137092;27;20487;-46
2023/04/11 09:57:44;;;;;;;0.20;0.20;;;;;;;18.85;44.65;100970.78;5118177;27;20077;-46
2023/04/11 10:00:15;;;;;;;0.20;0.20;;;;;;;18.85;44.64;100976.28;5119693;27;20081;-46
2023/04/11 10:02:43;;;;;;;0.20;0.20;;;;;;;18.84;44.87;100980.97;5137378;27;20039;-45
2023/04/11 10:05:12;;;;;;;0.20;0.20;;;;;;;18.85;44.67;100982.63;5119094;27;20038;-47
2023/04/11 10:07:47;;;;;;;0.20;0.20;;;;;;;18.85;44.47;100973.53;5118718;27;20099;-46
2023/04/11 10:10:18;;;;;;;0.20;0.20;;;;;;;18.85;44.77;100973.53;5137562;27;20050;-46
2023/04/11 10:12:44;;;;;;;0.20;0.20;;;;;;;18.84;44.67;100983.75;5118794;27;20300;-46
2023/04/11 10:15:10;;;;;;;0.20;0.20;;;;;;;18.85;44.48;100977.13;5118539;27;20263;-47
2023/04/11 10:17:36;;;;;;;0.30;0.30;;;;;;;18.85;44.83;100988.16;5136653;27;20415;-46
2023/04/11 10:20:42;;;;;;;0.20;0.20;;;;;;;18.84;44.82;100980.97;5137335;27;20563;-47
2023/04/11 10:23:08;;;;;;;0.20;0.20;;;;;;;18.85;44.85;100995.59;5121413;27;20085;-45
2023/04/11 10:25:54;;;;;;;0.20;0.20;;;;;;;18.85;44.51;100996.44;5118346;27;20042;-47
2023/04/11 10:28:37;;;;;;;0.20;0.20;;;;;;;18.84;44.87;100989.25;5118365;27;20311;-46
2023/04/11 10:31:05;;;;;;;0.22;0.22;;;;;;;18.84;44.75;100992.03;5101527;27;20050;-47
2023/04/11 10:33:31;;;;;;;;;;;;;;;18.85;44.51;100992.84;5118637;27;20623;-46
2023/04/11 10:36:08;;;;;;;0.20;0.20;;;;;;;18.84;44.59;101003.06;5118030;27;20248;-45
2023/04/11 10:41:24;;;;;;;0.20;0.20;;;;;;;18.84;44.55;100985.69;5174576;27;20119;-46
2023/04/11 10:43:50;;;;;;;0.20;0.20;;;;;;;18.84;44.75;100986.50;5144938;27;20042;-48
2023/04/11 10:46:24;;;;;;;0.20;0.20;;;;;;;18.85;44.55;100981.81;5134590;27;20450;-47
2023/04/11 10:48:59;;;;;;;0.20;0.20;;;;;;;18.84;45.03;100980.97;5155647;27;20576;-46
2023/04/11 10:51:26;;;;;;;0.20;0.20;;;;;;;18.85;44.71;100982.63;5174401;27;20046;-46
2023/04/11 10:53:53;;;;;;;0.20;0.20;;;;;;;18.85;44.80;100981.81;5155037;27;20074;-46
2023/04/11 11:02:11;;;;;;;0.20;0.20;;;;;;;18.85;44.55;100979.06;5174725;27;20178;-45
2023/04/11 11:04:37;;;;;;;0.20;0.20;;;;;;;18.85;44.20;100976.28;5152843;27;20553;-46
2023/04/11 11:07:05;;;;;;;0.20;0.20;;;;;;;18.85;44.82;100979.06;5113275;27;20055;-46
2023/04/11 11:09:31;;;;;;;0.30;0.30;;;;;;;18.85;44.76;100971.59;5114118;27;20455;-46
2023/04/11 11:12:08;;;;;;;0.30;0.30;;;;;;;18.84;44.54;100983.75;5114074;27;20446;-47
2023/04/11 11:14:35;;;;;;;0.20;0.20;;;;;;;18.85;44.41;100981.81;5132057;27;20047;-45
2023/04/11 11:17:01;;;;;;;0.30;0.30;;;;;;;18.86;44.45;100986.22;5134443;27;20046;-46
2023/04/11 11:19:28;;;;;;;0.20;0.20;;;;;;;18.84;44.68;100975.47;5134512;27;20613;-45
2023/04/11 11:21:54;;;;;;;0.20;0.20;;;;;;;18.86;44.72;100988.97;5134722;27;20076;-46
2023/04/11 11:24:24;;;;;;;0.30;0.30;;;;;;;18.85;44.63;100981.81;5153186;27;20078;-45
2023/04/11 11:26:52;;;;;;;0.30;0.30;;;;;;;18.85;44.58;100993.66;5153248;27;20066;-45
2023/04/11 11:29:28;;;;;;;0.25;0.25;;;;;;;18.85;44.65;100984.56;5153129;27;20528;-46
2023/04/11 11:31:55;;;;;;;0.20;0.20;;;;;;;18.85;44.72;100984.56;5108261;27;20152;-46
2023/04/11 11:34:29;;;;;;;0.22;0.22;;;;;;;18.85;44.58;100979.88;5132162;27;20134;-46